Time;durP1;ratioP1;P1;durP2;ratioP2;P2;SDS_P1;SDS_P2;PMS_P1;PMS_P2;Temp;Humidity;BMP_temperature;BMP_pressure;BME280_temperature;BME280_humidity;BME280_pressure;Samples;Min_cycle;Max_cycle;Signal;HPM_P1;HPM_P2
2022/02/11 00:00:50;;;;;;;360.85;181.68;;;;;;;3.45;64.84;95709.50;4895893;29;20052;-75
2022/02/11 00:08:23;;;;;;;299.88;154.98;;;;;;;3.33;65.16;95705.66;4899029;29;20543;-75
2022/02/11 00:10:49;;;;;;;298.17;148.30;;;;;;;3.34;66.25;95712.41;4882168;29;20075;-76
2022/02/11 00:13:14;;;;;;;285.45;149.13;;;;;;;3.23;65.14;95705.03;4882083;29;20092;-75
2022/02/11 00:15:41;;;;;;;294.73;145.48;;;;;;;3.19;65.26;95694.28;4897971;29;20096;-76
2022/02/11 00:18:07;;;;;;;291.67;145.25;;;;;;;3.25;65.08;95700.53;4913684;29;20036;-75
2022/02/11 00:20:33;;;;;;;269.55;136.75;;;;;;;3.24;64.90;95701.50;4897651;29;20060;-76
2022/02/11 00:22:58;;;;;;;271.80;133.38;;;;;;;3.26;65.30;95700.41;4914703;29;20048;-75
2022/02/11 00:25:24;;;;;;;238.75;121.00;;;;;;;3.29;65.60;95699.25;4914700;29;20042;-75
2022/02/11 00:37:49;;;;;;;162.60;89.80;;;;;;;3.20;65.85;95695.09;4897327;29;20050;-75
2022/02/11 00:46:02;;;;;;;193.60;105.55;;;;;;;3.19;66.53;95678.06;4913952;29;20424;-76
2022/02/11 01:02:11;;;;;;;178.45;96.63;;;;;;;3.18;66.12;95676.47;4913943;29;20114;-75
2022/02/11 01:04:25;;;;;;;147.63;73.07;;;;;;;3.17;66.36;95670.53;4899670;29;20055;-75
2022/02/11 01:06:51;;;;;;;157.52;80.35;;;;;;;3.17;66.84;95667.16;4897014;29;20048;-75
2022/02/11 01:09:16;;;;;;;126.28;65.53;;;;;;;3.16;66.90;95663.78;4913894;29;20055;-75
2022/02/11 01:11:49;;;;;;;141.35;74.60;;;;;;;3.21;66.88;95660.72;4896807;29;20048;-75
2022/02/11 01:14:14;;;;;;;164.25;83.90;;;;;;;3.11;66.10;95666.06;4882813;29;20040;-75
2022/02/11 01:16:45;;;;;;;181.05;91.40;;;;;;;3.10;65.98;95667.03;4896581;29;20047;-74
2022/02/11 01:21:49;;;;;;;169.82;92.47;;;;;;;3.22;66.29;95657.97;4897213;29;20047;-75
2022/02/11 01:24:45;;;;;;;259.23;127.55;;;;;;;3.19;65.33;95662.66;4900573;29;20070;-75
2022/02/11 01:27:23;;;;;;;209.05;108.38;;;;;;;3.18;65.59;95666.19;4887135;29;20407;-76
2022/02/11 01:34:52;;;;;;;244.38;126.53;;;;;;;3.10;64.98;95663.66;4896597;29;20043;-76
2022/02/11 01:48:42;;;;;;;147.30;74.25;;;;;;;3.08;66.22;95650.16;4855172;29;20052;-75
2022/02/11 01:53:41;;;;;;;150.43;77.38;;;;;;;3.01;66.18;95650.00;4884939;29;20149;-75
2022/02/11 01:59:20;;;;;;;148.48;75.32;;;;;;;2.95;65.69;95638.63;4882210;29;20115;-75
2022/02/11 02:10:31;;;;;;;128.05;69.25;;;;;;;2.83;66.48;95642.50;4898995;29;20115;-75
2022/02/11 02:50:47;;;;;;;168.85;79.97;;;;;;;2.51;65.22;95657.94;4884671;29;20099;-75
2022/02/11 02:58:46;;;;;;;180.25;75.68;;;;;;;2.47;65.44;95656.66;4912489;29;20111;-75
2022/02/11 04:56:38;;;;;;;126.05;72.95;;;;;;;2.06;65.03;95654.06;4914158;29;20123;-74
2022/02/11 05:01:47;;;;;;;122.25;69.05;;;;;;;1.97;64.89;95665.28;4886375;29;20480;-76
2022/02/11 05:04:13;;;;;;;134.18;75.40;;;;;;;1.91;65.05;95668.47;4881741;29;20489;-75
2022/02/11 05:06:38;;;;;;;141.63;81.88;;;;;;;1.93;65.96;95669.09;4881456;29;20044;-74
2022/02/11 05:09:04;;;;;;;195.13;106.72;;;;;;;1.92;66.42;95670.06;4897223;29;20020;-75
2022/02/11 05:11:30;;;;;;;231.45;132.43;;;;;;;1.98;66.52;95672.03;4914465;29;20048;-74
2022/02/11 05:13:55;;;;;;;248.93;147.32;;;;;;;1.87;65.26;95667.19;4867093;29;20067;-75
2022/02/11 05:16:20;;;;;;;218.38;126.47;;;;;;;1.93;65.18;95666.53;4882793;29;20032;-76
2022/02/11 05:18:46;;;;;;;196.13;118.65;;;;;;;1.85;64.44;95671.66;4897195;29;20036;-73
2022/02/11 05:21:11;;;;;;;193.85;116.53;;;;;;;1.85;64.83;95666.53;4896743;29;20044;-76
2022/02/11 05:23:37;;;;;;;245.30;136.95;;;;;;;1.88;64.05;95668.78;4880936;29;20043;-77
2022/02/11 05:26:02;;;;;;;251.23;147.85;;;;;;;1.82;63.93;95666.84;4897424;29;20047;-76
2022/02/11 05:28:28;;;;;;;205.10;120.60;;;;;;;1.87;65.12;95672.31;4895003;29;20452;-77
2022/02/11 05:30:53;;;;;;;223.35;136.57;;;;;;;1.87;65.01;95678.25;4913722;29;20040;-77
2022/02/11 05:33:20;;;;;;;225.50;129.02;;;;;;;1.83;64.36;95678.72;4913568;29;20472;-77
2022/02/11 05:35:46;;;;;;;178.80;102.72;;;;;;;1.79;64.05;95681.59;4912240;29;20043;-78
2022/02/11 05:38:12;;;;;;;162.65;94.63;;;;;;;1.83;64.64;95678.72;4912012;29;20044;-76
2022/02/11 05:40:37;;;;;;;182.93;106.53;;;;;;;1.93;65.67;95681.94;4912225;29;20032;-77
2022/02/11 05:43:02;;;;;;;189.93;111.30;;;;;;;1.91;64.50;95681.28;4912135;29;20495;-77
2022/02/11 05:45:28;;;;;;;173.80;102.45;;;;;;;1.92;64.51;95678.56;4912199;29;20040;-76
2022/02/11 05:47:53;;;;;;;152.38;92.43;;;;;;;2.01;63.59;95690.47;4894848;29;20043;-76
2022/02/11 05:50:19;;;;;;;146.55;85.57;;;;;;;1.96;64.81;95697.84;4878838;29;20059;-77
2022/02/11 05:52:44;;;;;;;144.90;85.50;;;;;;;2.04;64.04;95691.91;4912539;29;20031;-76
2022/02/11 05:55:10;;;;;;;135.20;82.15;;;;;;;2.06;64.06;95695.09;4912694;29;20036;-77
2022/02/11 05:57:36;;;;;;;147.25;86.47;;;;;;;2.15;64.81;95699.31;4894776;29;20040;-77
2022/02/11 06:00:02;;;;;;;161.27;93.32;;;;;;;2.20;64.51;95699.63;4895204;29;20501;-77
2022/02/11 06:02:27;;;;;;;277.98;169.10;;;;;;;2.33;63.94;95710.25;4895171;29;20092;-77
2022/02/11 06:04:53;;;;;;;315.30;190.95;;;;;;;2.51;64.20;95704.16;4910577;29;20044;-77
2022/02/11 06:07:18;;;;;;;299.98;180.57;;;;;;;2.67;64.09;95704.97;4894915;29;20086;-77
2022/02/11 06:09:44;;;;;;;367.33;213.57;;;;;;;2.87;63.81;95697.72;4879359;29;20036;-77
2022/02/11 06:12:09;;;;;;;326.13;190.43;;;;;;;3.08;63.16;95701.53;4879255;29;20051;-76
2022/02/11 06:14:37;;;;;;;294.27;176.85;;;;;;;3.25;62.96;95703.09;4912005;29;20036;-76
2022/02/11 06:17:03;;;;;;;270.00;159.93;;;;;;;3.46;62.35;95703.38;4910542;29;20044;-76
2022/02/11 06:19:28;;;;;;;278.30;154.48;;;;;;;3.63;61.61;95703.34;4911813;29;20047;-76
2022/02/11 06:21:54;;;;;;;288.38;170.68;;;;;;;3.87;61.17;95709.16;4895098;29;20127;-77
2022/02/11 06:24:19;;;;;;;278.02;164.57;;;;;;;4.13;60.45;95713.22;4912019;29;20096;-77
2022/02/11 06:26:45;;;;;;;274.65;165.90;;;;;;;4.40;60.07;95709.38;4893787;29;20096;-77
2022/02/11 06:29:11;;;;;;;268.35;164.05;;;;;;;4.97;58.06;95708.91;4910455;29;20036;-77
2022/02/11 06:31:36;;;;;;;284.10;173.55;;;;;;;5.28;57.09;95701.84;4911903;29;20044;-77
2022/02/11 06:34:02;;;;;;;281.73;166.60;;;;;;;5.53;56.09;95711.91;4911712;29;20095;-78
2022/02/11 06:36:27;;;;;;;249.32;146.73;;;;;;;5.74;55.84;95709.41;4911803;29;20040;-77
2022/02/11 06:38:53;;;;;;;214.15;131.52;;;;;;;5.94;55.60;95710.47;4911396;29;20051;-77
2022/02/11 06:41:18;;;;;;;204.93;120.22;;;;;;;6.20;55.62;95706.63;4914232;29;20043;-77
2022/02/11 06:43:43;;;;;;;179.38;104.57;;;;;;;6.38;55.08;95707.00;4883262;29;20051;-77
2022/02/11 06:46:09;;;;;;;189.88;113.18;;;;;;;6.53;55.09;95694.81;4912564;29;20040;-77
2022/02/11 06:48:35;;;;;;;197.93;118.60;;;;;;;6.77;55.29;95701.38;4897695;29;20078;-76
2022/02/11 06:51:00;;;;;;;198.82;119.50;;;;;;;7.03;54.30;95695.63;4882764;29;20039;-77
2022/02/11 06:53:26;;;;;;;186.43;105.13;;;;;;;7.31;53.96;95698.19;4899106;29;20040;-77
2022/02/11 06:55:51;;;;;;;184.73;106.57;;;;;;;7.65;53.15;95694.84;4898553;29;20034;-77
2022/02/11 06:58:17;;;;;;;180.20;108.00;;;;;;;7.95;52.12;95699.72;4898139;29;20032;-77
2022/02/11 07:00:47;;;;;;;176.82;99.38;;;;;;;8.17;51.51;95698.63;4897756;29;20152;-77
2022/02/11 07:03:13;;;;;;;156.23;88.82;;;;;;;8.31;50.66;95700.28;4898255;29;20058;-77
2022/02/11 07:05:38;;;;;;;136.77;80.85;;;;;;;8.41;50.58;95692.94;4897721;29;20788;-77
2022/02/11 07:08:04;;;;;;;135.90;84.00;;;;;;;8.52;50.79;95695.94;4914644;29;20042;-77
2022/02/11 07:10:30;;;;;;;125.40;74.53;;;;;;;8.68;50.39;95700.75;4866470;29;20516;-77
2022/02/11 07:12:55;;;;;;;127.30;75.93;;;;;;;8.80;50.17;95696.59;4914523;29;20039;-77
2022/02/11 07:15:21;;;;;;;136.30;72.35;;;;;;;8.90;49.79;95694.38;4881913;29;20431;-77
2022/02/11 07:17:46;;;;;;;125.22;69.68;;;;;;;9.01;49.26;95687.81;4882417;29;20036;-78
2022/02/11 07:20:12;;;;;;;118.32;67.03;;;;;;;9.17;49.15;95689.19;4914747;29;20484;-78
2022/02/11 07:22:38;;;;;;;117.55;67.78;;;;;;;9.30;48.61;95684.00;4898122;29;20039;-78
2022/02/11 07:25:05;;;;;;;116.32;68.80;;;;;;;9.46;48.95;95685.38;4897978;29;20032;-78
2022/02/11 07:27:31;;;;;;;114.10;67.22;;;;;;;9.60;48.05;95681.75;4913348;29;20523;-77
2022/02/11 07:29:56;;;;;;;116.32;68.45;;;;;;;9.76;48.56;95681.28;4881807;29;20060;-78
2022/02/11 07:32:24;;;;;;;102.95;60.78;;;;;;;9.92;47.36;95693.00;4882206;29;20547;-78
2022/02/11 07:34:49;;;;;;;117.95;61.72;;;;;;;9.98;47.27;95684.41;4878788;29;20046;-78
2022/02/11 07:37:15;;;;;;;113.72;58.75;;;;;;;10.09;46.87;95685.56;4880654;29;20024;-78
2022/02/11 07:39:40;;;;;;;103.22;60.40;;;;;;;10.22;46.38;95683.72;4896340;29;20212;-77
2022/02/11 07:42:06;;;;;;;107.88;61.92;;;;;;;10.35;45.60;95687.25;4865799;29;20032;-78
2022/02/11 07:44:31;;;;;;;103.70;58.58;;;;;;;10.44;45.69;95686.00;4898209;29;20040;-78
2022/02/11 07:46:57;;;;;;;96.72;55.53;;;;;;;10.58;45.47;95671.13;4898645;29;20043;-78
2022/02/11 07:49:22;;;;;;;100.03;55.53;;;;;;;10.66;44.97;95679.47;4898201;29;20522;-78
2022/02/11 07:51:48;;;;;;;103.45;58.05;;;;;;;10.73;44.80;95674.19;4914018;29;20040;-78
2022/02/11 07:54:13;;;;;;;91.57;55.45;;;;;;;10.74;44.53;95676.63;4897576;29;20036;-78
2022/02/11 07:56:39;;;;;;;100.30;56.50;;;;;;;10.85;44.86;95679.53;4882314;29;20055;-78
2022/02/11 07:59:05;;;;;;;114.38;60.92;;;;;;;10.92;45.06;95670.69;4915722;29;20024;-78
2022/02/11 08:01:30;;;;;;;106.90;59.60;;;;;;;11.03;45.06;95671.78;4865729;29;20417;-77
2022/02/11 08:03:56;;;;;;;111.47;63.85;;;;;;;11.14;44.91;95668.47;4900291;29;20072;-78
2022/02/11 08:06:21;;;;;;;112.82;63.55;;;;;;;11.28;45.01;95667.34;4912434;29;20058;-78
2022/02/11 08:08:47;;;;;;;106.93;59.33;;;;;;;11.38;43.27;95667.63;4881802;29;20032;-78
2022/02/11 08:11:12;;;;;;;107.63;62.70;;;;;;;11.37;42.82;95666.03;4881542;29;20633;-78
2022/02/11 08:13:38;;;;;;;104.85;62.15;;;;;;;11.32;43.26;95665.91;4914194;29;20032;-77
2022/02/11 08:16:07;;;;;;;114.50;67.30;;;;;;;11.35;43.45;95668.06;4881713;29;20046;-77
2022/02/11 08:18:33;;;;;;;110.20;61.70;;;;;;;11.36;43.10;95661.06;4896757;29;20036;-78
2022/02/11 08:20:58;;;;;;;109.13;61.45;;;;;;;11.37;42.97;95665.25;4897044;29;20096;-78
2022/02/11 08:23:25;;;;;;;108.88;61.75;;;;;;;11.45;43.07;95661.59;4896666;29;20405;-77
2022/02/11 08:25:50;;;;;;;97.70;59.17;;;;;;;11.59;43.63;95663.84;4898581;29;20424;-78
2022/02/11 08:28:16;;;;;;;113.25;60.47;;;;;;;11.69;42.73;95658.09;4897588;29;20492;-80
2022/02/11 08:30:46;;;;;;;96.60;57.00;;;;;;;11.77;42.66;95660.44;4901711;29;20124;-82
2022/02/11 08:33:12;;;;;;;91.50;54.88;;;;;;;11.80;42.47;95664.44;4906649;29;20051;-82
2022/02/11 08:35:37;;;;;;;90.55;54.97;;;;;;;11.80;43.69;95654.00;4887541;29;20036;-82
2022/02/11 08:38:03;;;;;;;92.03;53.63;;;;;;;11.81;42.63;95656.41;4904109;29;20028;-83
2022/02/11 08:42:56;;;;;;;89.68;53.13;;;;;;;11.78;42.81;95648.19;4935335;29;20059;-81
2022/02/11 08:45:22;;;;;;;98.05;50.75;;;;;;;11.74;42.25;95650.44;4920288;29;20492;-81
2022/02/11 08:47:48;;;;;;;89.88;49.45;;;;;;;11.64;42.20;95644.94;4900546;29;20028;-83
2022/02/11 08:50:18;;;;;;;89.10;49.30;;;;;;;11.58;42.40;95641.41;4916724;29;20107;-82
2022/02/11 08:52:44;;;;;;;84.47;48.33;;;;;;;11.52;42.03;95636.25;4916802;29;20261;-81
2022/02/11 08:55:09;;;;;;;91.25;50.90;;;;;;;11.49;42.65;95631.47;4916834;29;20040;-81
2022/02/11 08:57:43;;;;;;;86.15;51.78;;;;;;;11.40;42.62;95634.38;4916703;29;20523;-81
2022/02/11 09:00:09;;;;;;;84.78;48.22;;;;;;;11.32;42.37;95626.84;4916773;29;20079;-82
2022/02/11 09:02:35;;;;;;;97.05;49.50;;;;;;;11.29;42.74;95627.28;4885391;29;20043;-81
2022/02/11 09:05:02;;;;;;;90.13;50.10;;;;;;;11.30;43.15;95628.88;4901712;29;20119;-81
2022/02/11 09:07:27;;;;;;;92.45;48.78;;;;;;;11.30;42.17;95625.47;4906452;29;20043;-81
2022/02/11 09:09:52;;;;;;;97.57;48.70;;;;;;;11.28;42.75;95630.91;4926962;29;20031;-81
2022/02/11 09:12:18;;;;;;;95.30;50.15;;;;;;;11.28;42.50;95623.09;4925919;29;20040;-81
2022/02/11 09:14:44;;;;;;;93.43;52.38;;;;;;;11.19;42.84;95619.16;4923562;29;20036;-82
2022/02/11 09:17:09;;;;;;;110.55;57.58;;;;;;;11.18;43.04;95619.38;4901306;29;20572;-81
2022/02/11 09:19:35;;;;;;;100.82;53.25;;;;;;;11.20;44.23;95618.16;4916600;29;20485;-81
2022/02/11 09:22:00;;;;;;;103.15;61.22;;;;;;;11.26;42.94;95616.50;4900687;29;20036;-81
2022/02/11 09:24:25;;;;;;;123.25;65.63;;;;;;;11.24;42.93;95616.72;4900154;29;20031;-81
2022/02/11 09:26:51;;;;;;;124.55;68.15;;;;;;;11.12;43.75;95608.03;4917787;29;20032;-81
2022/02/11 09:29:17;;;;;;;115.05;67.50;;;;;;;11.11;43.91;95609.03;4917561;29;20024;-81
2022/02/11 09:31:43;;;;;;;136.13;72.78;;;;;;;11.12;43.26;95610.63;4907018;29;20095;-80
2022/02/11 09:34:12;;;;;;;126.50;74.78;;;;;;;11.06;43.34;95614.06;4933978;29;20056;-80
2022/02/11 09:36:39;;;;;;;126.13;72.55;;;;;;;10.93;43.57;95606.41;4931591;29;20068;-81
2022/02/11 09:39:06;;;;;;;139.85;75.65;;;;;;;10.92;43.86;95594.41;4921761;29;20043;-81
2022/02/11 09:41:31;;;;;;;133.80;74.80;;;;;;;10.92;43.83;95597.81;4916107;29;20036;-81
2022/02/11 09:44:00;;;;;;;124.18;72.32;;;;;;;10.88;44.13;95604.44;4916323;29;20032;-81
2022/02/11 09:46:28;;;;;;;138.65;73.80;;;;;;;10.83;44.02;95596.47;4893626;29;20040;-80
2022/02/11 09:48:53;;;;;;;138.73;74.60;;;;;;;10.83;43.96;95596.47;4915595;29;20054;-81
2022/02/11 09:51:19;;;;;;;138.20;75.30;;;;;;;10.83;44.08;95601.69;4915558;29;20303;-81
2022/02/11 09:53:44;;;;;;;146.75;72.95;;;;;;;10.82;43.97;95600.88;4915714;29;20436;-84
2022/02/11 09:56:10;;;;;;;137.75;69.15;;;;;;;10.85;45.22;95598.88;4884076;29;20024;-82
2022/02/11 09:58:36;;;;;;;117.57;68.70;;;;;;;10.78;44.09;95584.13;4900178;29;20036;-81
2022/02/11 10:01:01;;;;;;;121.60;67.95;;;;;;;10.76;44.80;95586.16;4916363;29;20079;-81
2022/02/11 10:03:30;;;;;;;141.05;66.95;;;;;;;10.84;44.17;95587.66;5000283;23;20071;-80
2022/02/11 10:05:57;;;;;;;116.82;66.03;;;;;;;10.88;44.19;95580.22;4955259;29;20043;-80
2022/02/11 10:08:24;;;;;;;111.15;65.20;;;;;;;10.91;43.82;95577.22;4937669;28;20046;-81
2022/02/11 10:10:52;;;;;;;109.07;65.93;;;;;;;10.96;43.90;95578.16;4938021;29;20031;-81
2022/02/11 10:13:18;;;;;;;121.22;63.95;;;;;;;10.99;43.96;95574.31;4939037;29;20039;-81
2022/02/11 10:15:48;;;;;;;122.70;62.40;;;;;;;11.03;43.67;95565.06;4939045;29;20039;-82
2022/02/11 10:18:14;;;;;;;112.80;62.00;;;;;;;11.09;43.46;95561.63;4940188;29;20082;-80
2022/02/11 10:20:42;;;;;;;111.25;62.08;;;;;;;11.14;43.61;95561.75;4941617;29;20043;-81
2022/02/11 10:23:20;;;;;;;103.32;62.10;;;;;;;11.20;44.09;95560.09;4941197;29;20105;-82
2022/02/11 10:25:51;;;;;;;129.05;62.65;;;;;;;11.27;43.84;95550.41;4925606;29;20031;-82
2022/02/11 10:28:27;;;;;;;105.70;58.65;;;;;;;11.37;44.69;95551.47;4957886;29;20655;-82
2022/02/11 10:31:26;;;;;;;116.85;62.33;;;;;;;11.50;43.92;95544.53;4957741;29;20077;-82
2022/02/11 10:34:24;;;;;;;106.53;54.92;;;;;;;11.56;43.43;95534.03;4932217;29;20047;-82
2022/02/11 10:36:49;;;;;;;101.80;56.75;;;;;;;11.62;43.24;95533.16;4899227;29;20097;-82
2022/02/11 10:39:27;;;;;;;106.78;53.58;;;;;;;11.67;42.94;95527.28;4940663;29;20039;-82
2022/02/11 10:42:02;;;;;;;92.07;53.03;;;;;;;11.69;42.67;95522.63;4941210;29;20042;-82
2022/02/11 10:44:33;;;;;;;83.20;50.80;;;;;;;11.74;43.15;95512.38;4940911;29;20027;-82
2022/02/11 10:47:03;;;;;;;87.03;52.60;;;;;;;11.82;42.77;95511.28;4942181;29;20586;-82
2022/02/11 10:49:35;;;;;;;92.75;50.35;;;;;;;11.89;42.37;95507.56;4941350;29;20031;-82
2022/02/11 10:52:15;;;;;;;90.82;49.00;;;;;;;11.95;42.06;95503.28;4941264;29;20439;-82
2022/02/11 10:54:41;;;;;;;92.05;49.20;;;;;;;12.00;42.44;95509.41;4925801;29;20041;-81
2022/02/11 10:57:10;;;;;;;79.97;44.50;;;;;;;12.05;41.91;95489.69;4941274;29;20046;-82
2022/02/11 10:59:37;;;;;;;84.40;44.92;;;;;;;12.09;41.45;95494.25;4940741;29;20061;-82
2022/02/11 11:02:10;;;;;;;78.85;42.88;;;;;;;12.16;41.50;95491.53;4939490;29;20038;-77
2022/02/11 11:04:36;;;;;;;81.10;46.13;;;;;;;12.26;41.45;95486.56;4952038;28;20523;-77
2022/02/11 11:07:04;;;;;;;72.45;42.40;;;;;;;12.33;41.48;95482.81;4952544;29;20066;-77
2022/02/11 11:09:29;;;;;;;88.07;46.10;;;;;;;12.40;40.95;95477.50;4935176;29;20463;-77
2022/02/11 11:11:56;;;;;;;73.25;44.38;;;;;;;12.48;41.52;95479.75;4951565;29;20027;-77
2022/02/11 11:14:23;;;;;;;85.90;44.00;;;;;;;12.57;41.26;95467.19;4935138;29;20569;-77
2022/02/11 11:16:51;;;;;;;80.82;45.63;;;;;;;12.66;40.90;95465.78;4935463;29;20475;-77
2022/02/11 11:19:17;;;;;;;78.93;44.38;;;;;;;12.74;40.55;95460.25;4935114;29;20050;-77
2022/02/11 11:21:47;;;;;;;90.20;44.65;;;;;;;12.81;40.48;95457.50;4935121;29;20039;-77
2022/02/11 11:24:13;;;;;;;81.38;43.38;;;;;;;12.89;40.16;95454.53;4934789;29;20098;-78
2022/02/11 11:26:44;;;;;;;73.82;43.53;;;;;;;12.84;39.96;95447.38;4934803;29;20562;-77
2022/02/11 11:29:16;;;;;;;77.68;41.67;;;;;;;12.93;40.39;95448.63;4934887;29;20058;-77
2022/02/11 11:31:58;;;;;;;71.35;39.72;;;;;;;12.99;39.96;95433.06;4951928;29;20034;-77
2022/02/11 11:34:30;;;;;;;85.37;41.57;;;;;;;13.04;39.45;95433.97;4952068;28;20040;-77
2022/02/11 11:36:59;;;;;;;83.88;40.65;;;;;;;13.08;39.70;95434.28;4952235;29;20114;-77
2022/02/11 11:39:24;;;;;;;74.25;40.80;;;;;;;13.13;39.71;95424.72;4935145;29;20031;-78
2022/02/11 11:42:02;;;;;;;74.03;40.75;;;;;;;13.19;39.26;95421.25;4936188;29;20031;-80
2022/02/11 11:44:27;;;;;;;80.90;37.83;;;;;;;13.23;38.98;95412.94;4952484;28;20035;-76
2022/02/11 11:46:54;;;;;;;70.45;38.00;;;;;;;13.26;39.22;95413.25;4935173;29;20326;-77
2022/02/11 11:49:26;;;;;;;74.38;33.30;;;;;;;13.31;38.78;95402.09;4951834;28;20145;-78
2022/02/11 11:51:54;;;;;;;61.50;31.35;;;;;;;13.35;38.06;95400.63;4949641;29;20034;-77
2022/02/11 11:54:21;;;;;;;52.00;23.70;;;;;;;13.35;36.89;95395.41;4951066;28;20396;-77
2022/02/11 11:56:53;;;;;;;34.63;20.70;;;;;;;13.34;36.39;95391.16;4951958;29;20502;-77
2022/02/11 11:59:29;;;;;;;35.87;20.20;;;;;;;13.31;35.74;95383.81;4950997;28;20054;-77
2022/02/11 12:02:01;;;;;;;36.28;17.27;;;;;;;13.30;35.49;95379.63;4935960;29;20066;-78
2022/02/11 12:04:28;;;;;;;38.92;16.88;;;;;;;13.32;34.86;95390.63;4933367;29;20039;-76
2022/02/11 12:06:58;;;;;;;31.73;16.63;;;;;;;13.18;35.02;95367.44;4952493;29;20109;-76
2022/02/11 12:09:24;;;;;;;37.72;16.55;;;;;;;13.25;34.72;95369.09;4952430;28;20027;-77
2022/02/11 12:11:54;;;;;;;38.35;16.80;;;;;;;13.34;34.58;95373.72;4934922;29;20143;-76
2022/02/11 12:16:52;;;;;;;35.65;17.20;;;;;;;13.44;34.85;95357.41;4979827;23;20082;-77
2022/02/11 12:19:18;;;;;;;45.28;24.45;;;;;;;13.45;34.61;95348.53;4937043;29;20414;-76
2022/02/11 12:21:43;;;;;;;29.73;17.60;;;;;;;13.35;34.83;95358.84;4934178;29;20508;-76
2022/02/11 12:32:12;;;;;;;22.95;13.60;;;;;;;13.10;35.17;95346.88;5645659;23;20129;-77
2022/02/11 12:34:37;;;;;;;24.63;10.77;;;;;;;13.15;35.49;95344.34;4923927;29;20451;-77
2022/02/11 12:37:09;;;;;;;19.77;10.60;;;;;;;13.20;35.02;95347.09;4941520;28;20071;-77
2022/02/11 12:39:34;;;;;;;16.98;9.27;;;;;;;13.28;34.85;95332.84;4923629;29;20035;-77
2022/02/11 12:42:00;;;;;;;22.77;9.18;;;;;;;13.30;34.56;95330.00;4955682;28;20090;-77
2022/02/11 12:44:27;;;;;;;13.75;9.55;;;;;;;13.39;34.85;95329.38;4940651;29;20031;-77
2022/02/11 12:46:53;;;;;;;19.73;11.13;;;;;;;13.29;34.91;95317.97;4963030;28;20062;-76
2022/02/11 12:49:18;;;;;;;15.98;9.95;;;;;;;13.40;35.23;95319.72;4925912;29;20463;-77
2022/02/11 12:51:53;;;;;;;16.02;8.93;;;;;;;13.48;35.36;95320.09;4940269;29;20035;-77
2022/02/11 12:54:19;;;;;;;16.20;9.85;;;;;;;13.46;35.11;95329.22;4955702;28;20036;-77
2022/02/11 12:56:45;;;;;;;14.07;8.25;;;;;;;13.54;35.25;95325.44;4932229;28;20031;-77
2022/02/11 12:59:11;;;;;;;23.85;9.00;;;;;;;13.61;35.21;95321.63;4956636;28;20486;-77
2022/02/11 13:01:36;;;;;;;14.40;8.38;;;;;;;13.67;34.93;95322.50;4940714;29;20066;-77
2022/02/11 13:04:02;;;;;;;16.33;8.60;;;;;;;13.67;35.15;95320.69;4942817;29;20658;-77
2022/02/11 13:06:31;;;;;;;16.98;8.13;;;;;;;13.69;35.09;95318.63;4942498;29;20134;-77
2022/02/11 13:09:01;;;;;;;13.88;8.20;;;;;;;13.71;35.09;95321.78;4940591;29;20050;-77
2022/02/11 13:11:27;;;;;;;21.27;8.68;;;;;;;13.75;34.81;95317.66;4940817;29;20038;-77
2022/02/11 13:14:02;;;;;;;17.83;8.55;;;;;;;13.85;35.06;95321.47;4908262;29;20059;-77
2022/02/11 13:16:28;;;;;;;21.70;8.75;;;;;;;13.91;34.90;95310.03;4941241;29;20028;-77
2022/02/11 13:18:54;;;;;;;31.90;8.77;;;;;;;13.96;34.83;95312.72;4924450;29;20036;-77
2022/02/11 13:21:21;;;;;;;17.05;8.20;;;;;;;14.04;35.13;95307.09;4923119;29;20074;-77
2022/02/11 13:23:50;;;;;;;13.70;6.95;;;;;;;14.08;34.43;95302.97;4973288;23;20050;-76
2022/02/11 13:26:16;;;;;;;13.38;8.07;;;;;;;14.14;34.63;95304.59;4940429;29;20572;-76
2022/02/11 13:31:10;;;;;;;11.82;6.70;;;;;;;14.01;33.88;95308.38;4946408;23;20044;-76
2022/02/11 13:33:36;;;;;;;10.90;6.45;;;;;;;14.05;34.02;95290.38;4938591;29;20042;-76
2022/02/11 13:36:11;;;;;;;8.50;6.15;;;;;;;14.08;34.59;95295.91;4922265;29;20489;-76
2022/02/11 13:38:41;;;;;;;22.08;6.93;;;;;;;14.12;34.23;95297.00;4922255;29;20036;-76
2022/02/11 13:41:11;;;;;;;10.60;6.45;;;;;;;14.13;34.12;95303.03;4889302;29;20188;-76
2022/02/11 13:43:53;;;;;;;10.20;6.03;;;;;;;14.16;33.24;95305.19;4921609;29;20036;-76
2022/02/11 13:46:38;;;;;;;6.75;5.63;;;;;;;14.20;33.29;95306.28;4889897;29;20032;-76
2022/02/11 13:49:07;;;;;;;9.60;5.40;;;;;;;14.22;33.54;95301.59;4890058;29;20066;-76
2022/02/11 13:51:33;;;;;;;11.27;5.15;;;;;;;14.25;33.43;95300.31;4904989;29;20043;-77
2022/02/11 13:54:15;;;;;;;15.75;6.22;;;;;;;14.26;33.41;95294.81;4890076;29;20408;-76
2022/02/11 13:56:48;;;;;;;14.18;6.68;;;;;;;14.31;33.21;95294.88;4921743;29;20044;-76
2022/02/11 13:59:23;;;;;;;9.20;6.03;;;;;;;14.34;32.79;95293.63;4890276;29;20043;-76
2022/02/11 14:01:49;;;;;;;11.35;5.25;;;;;;;14.36;32.44;95302.03;4892039;29;20433;-76
2022/02/11 14:04:18;;;;;;;14.77;6.10;;;;;;;14.37;32.84;95298.38;4904585;29;20050;-77
2022/02/11 14:06:47;;;;;;;11.27;5.78;;;;;;;14.40;32.51;95287.41;4871816;29;20044;-77
2022/02/11 14:09:37;;;;;;;11.95;5.40;;;;;;;14.40;32.54;95292.66;4906191;29;20039;-77
2022/02/11 14:12:04;;;;;;;10.10;5.50;;;;;;;14.40;32.59;95287.41;4920817;29;20174;-76
2022/02/11 14:14:32;;;;;;;10.25;5.90;;;;;;;14.39;32.89;95278.78;4904180;29;20040;-76
2022/02/11 14:16:58;;;;;;;8.32;5.28;;;;;;;14.41;32.72;95294.22;4904224;29;20456;-76
2022/02/11 14:19:27;;;;;;;8.18;5.80;;;;;;;14.40;32.19;95288.19;4904243;29;20044;-76
2022/02/11 14:22:00;;;;;;;11.45;5.60;;;;;;;14.34;32.40;95289.19;4886635;29;20032;-76
2022/02/11 14:24:27;;;;;;;7.85;5.13;;;;;;;14.28;32.25;95290.13;4921401;29;20075;-76
2022/02/11 14:26:53;;;;;;;12.13;5.93;;;;;;;14.29;32.31;95289.09;4920732;29;20063;-76
2022/02/11 14:29:19;;;;;;;11.38;5.28;;;;;;;14.28;32.51;95284.13;4904840;29;20519;-77
2022/02/11 14:31:45;;;;;;;10.43;5.28;;;;;;;14.31;32.13;95292.25;4873324;29;20531;-76
2022/02/11 14:34:11;;;;;;;14.25;5.50;;;;;;;14.34;32.54;95288.41;4903568;29;20457;-77
2022/02/11 14:36:38;;;;;;;14.27;5.57;;;;;;;14.34;32.67;95285.78;4921153;29;20047;-77
2022/02/11 14:39:07;;;;;;;8.43;5.57;;;;;;;14.34;32.58;95289.19;4887751;29;20051;-77
2022/02/11 14:41:48;;;;;;;11.07;5.13;;;;;;;14.34;32.18;95277.94;4920738;29;20040;-77
2022/02/11 14:44:14;;;;;;;17.02;5.30;;;;;;;14.34;32.14;95278.72;4920740;29;20036;-77
2022/02/11 14:46:39;;;;;;;11.98;5.15;;;;;;;14.35;32.44;95280.31;4904390;29;20058;-77
2022/02/11 14:49:05;;;;;;;15.13;8.15;;;;;;;14.31;32.75;95276.56;4904012;29;20091;-77
2022/02/11 14:51:34;;;;;;;17.27;8.95;;;;;;;14.30;32.72;95290.69;4904445;29;20409;-77
2022/02/11 14:54:08;;;;;;;23.77;11.00;;;;;;;14.28;33.31;95284.91;4888650;29;20040;-77
2022/02/11 14:56:38;;;;;;;26.85;11.60;;;;;;;14.25;33.54;95277.56;4920656;29;20055;-77
2022/02/11 14:59:03;;;;;;;27.23;12.15;;;;;;;14.24;33.25;95278.59;4873137;29;20040;-77
2022/02/11 15:01:28;;;;;;;27.60;11.85;;;;;;;14.22;33.53;95274.63;4905508;29;20043;-77
2022/02/11 15:03:54;;;;;;;31.58;13.57;;;;;;;14.19;33.50;95273.31;4892855;29;20052;-77
2022/02/11 15:06:19;;;;;;;32.63;14.00;;;;;;;14.16;33.94;95278.22;4924332;29;20040;-76
2022/02/11 15:08:45;;;;;;;26.35;11.25;;;;;;;14.12;33.91;95275.28;4907269;29;20040;-77
2022/02/11 15:11:12;;;;;;;44.92;12.02;;;;;;;14.10;33.69;95279.97;4907556;29;20039;-77
2022/02/11 15:13:38;;;;;;;39.67;19.30;;;;;;;14.08;34.38;95279.44;4875550;29;20036;-77
2022/02/11 15:16:03;;;;;;;51.88;23.05;;;;;;;14.05;35.01;95274.69;4891739;29;20044;-79
2022/02/11 15:18:29;;;;;;;60.53;24.85;;;;;;;14.02;35.21;95277.78;4890726;29;20030;-77
2022/02/11 15:20:54;;;;;;;60.10;24.58;;;;;;;13.97;36.00;95275.09;4905787;29;20044;-80
2022/02/11 15:23:24;;;;;;;66.07;25.45;;;;;;;13.93;36.04;95281.84;4924260;29;20036;-77